Time;durP1;ratioP1;P1;durP2;ratioP2;P2;SDS_P1;SDS_P2;PMS_P1;PMS_P2;Temp;Humidity;BMP_temperature;BMP_pressure;BME280_temperature;BME280_humidity;BME280_pressure;Samples;Min_cycle;Max_cycle;Signal;HPM_P1;HPM_P2
2022/05/20 00:00:17;;;;;;;17.45;10.93;;;;;;;;;;5018644;28;20057;-62
2022/05/20 00:02:43;;;;;;;19.38;11.27;;;;;;;;;;5013533;28;20045;-63
2022/05/20 00:05:09;;;;;;;17.65;10.80;;;;;;;;;;5008880;28;20049;-62
2022/05/20 00:07:36;;;;;;;20.65;12.13;;;;;;;;;;5011166;28;20053;-63
2022/05/20 00:10:02;;;;;;;18.50;11.55;;;;;;;;;;5013207;28;20494;-62
2022/05/20 00:12:28;;;;;;;17.85;11.98;;;;;;;;;;5012432;28;20033;-62
2022/05/20 00:14:54;;;;;;;20.83;12.10;;;;;;;;;;5009154;28;20042;-62
2022/05/20 00:17:21;;;;;;;17.90;11.23;;;;;;;;;;5010443;28;20334;-62
2022/05/20 00:19:47;;;;;;;28.25;15.73;;;;;;;;;;5008237;28;20137;-62
2022/05/20 00:22:13;;;;;;;17.67;13.23;;;;;;;;;;5012533;28;20038;-62
2022/05/20 00:25:45;;;;;;;25.80;14.55;;;;;;;;;;5002441;28;20125;-62
2022/05/20 00:27:25;;;;;;;23.45;14.27;;;;;;;;;;5013370;28;20473;-62
2022/05/20 00:29:52;;;;;;;21.02;14.80;;;;;;;;;;5015418;28;20054;-62
2022/05/20 00:32:18;;;;;;;17.50;12.95;;;;;;;;;;5010012;28;20432;-62
2022/05/20 00:34:44;;;;;;;21.70;14.82;;;;;;;;;;5011205;28;20050;-62
2022/05/20 00:37:10;;;;;;;20.38;14.98;;;;;;;;;;5013487;28;20137;-62
2022/05/20 00:39:36;;;;;;;23.10;14.95;;;;;;;;;;5008020;28;20453;-62
2022/05/20 00:42:10;;;;;;;20.73;13.48;;;;;;;;;;5009086;28;20405;-62
2022/05/20 00:44:36;;;;;;;18.58;12.52;;;;;;;;;;5006938;28;20136;-62
2022/05/20 00:47:02;;;;;;;16.52;12.15;;;;;;;;;;5011003;28;20121;-62
2022/05/20 00:49:29;;;;;;;18.17;12.45;;;;;;;;;;5008960;28;20053;-63
2022/05/20 00:51:55;;;;;;;18.65;11.07;;;;;;;;;;5012483;28;20189;-62
2022/05/20 00:54:24;;;;;;;13.95;9.82;;;;;;;;;;5012534;28;20046;-62
2022/05/20 00:56:52;;;;;;;13.60;10.20;;;;;;;;;;4996093;28;20053;-62
2022/05/20 00:59:20;;;;;;;12.80;10.05;;;;;;;;;;5011693;28;20042;-62
2022/05/20 01:01:48;;;;;;;11.90;8.32;;;;;;;;;;5011253;28;20045;-62
2022/05/20 01:04:15;;;;;;;13.27;8.93;;;;;;;;;;5011158;28;20050;-62
2022/05/20 01:06:41;;;;;;;12.18;8.55;;;;;;;;;;5018261;28;20469;-62
2022/05/20 01:09:08;;;;;;;12.60;9.30;;;;;;;;;;5012318;28;20042;-62
2022/05/20 01:11:36;;;;;;;13.38;10.82;;;;;;;;;;5015666;28;20068;-62
2022/05/20 01:14:02;;;;;;;13.88;10.80;;;;;;;;;;5012302;28;20042;-62
2022/05/20 01:16:28;;;;;;;20.52;13.45;;;;;;;;;;5016564;28;20046;-62
2022/05/20 01:18:57;;;;;;;23.10;13.20;;;;;;;;;;4997444;28;20469;-62
2022/05/20 01:21:23;;;;;;;22.58;15.73;;;;;;;;;;5013676;28;20046;-62
2022/05/20 01:23:50;;;;;;;27.80;15.13;;;;;;;;;;5015470;28;20057;-62
2022/05/20 01:26:16;;;;;;;23.75;12.68;;;;;;;;;;5016775;28;20041;-62
2022/05/20 01:28:42;;;;;;;20.50;14.80;;;;;;;;;;5015177;28;20394;-62
2022/05/20 01:31:13;;;;;;;19.95;14.98;;;;;;;;;;5011890;28;20042;-63
2022/05/20 01:33:42;;;;;;;20.23;13.95;;;;;;;;;;5015358;28;20546;-62
2022/05/20 01:36:11;;;;;;;20.00;13.75;;;;;;;;;;5018776;28;20049;-62
2022/05/20 01:38:37;;;;;;;20.27;12.73;;;;;;;;;;5012216;28;20057;-62
2022/05/20 01:41:06;;;;;;;20.83;13.63;;;;;;;;;;5016160;28;20082;-62
2022/05/20 01:43:37;;;;;;;16.13;13.52;;;;;;;;;;4995740;28;20061;-62
2022/05/20 01:46:13;;;;;;;19.50;13.77;;;;;;;;;;5014335;28;20124;-62
2022/05/20 01:48:54;;;;;;;17.02;12.02;;;;;;;;;;5013730;28;20072;-62
2022/05/20 01:51:22;;;;;;;27.33;13.32;;;;;;;;;;5013053;28;20033;-62
2022/05/20 01:53:51;;;;;;;18.27;12.20;;;;;;;;;;5012860;28;20076;-62
2022/05/20 01:56:20;;;;;;;14.88;11.60;;;;;;;;;;4998075;28;20085;-62
2022/05/20 01:58:50;;;;;;;26.05;13.60;;;;;;;;;;5016030;28;20034;-63
2022/05/20 02:01:19;;;;;;;27.27;13.55;;;;;;;;;;5019614;28;20489;-63
2022/05/20 02:03:46;;;;;;;25.65;13.57;;;;;;;;;;5002789;28;20105;-63
2022/05/20 02:06:17;;;;;;;134.43;15.35;;;;;;;;;;5012101;28;20422;-62
2022/05/20 02:08:44;;;;;;;70.03;15.35;;;;;;;;;;5013545;28;20048;-63
2022/05/20 02:11:21;;;;;;;38.88;11.75;;;;;;;;;;4994307;28;20208;-62
2022/05/20 02:13:51;;;;;;;102.70;13.07;;;;;;;;;;5014589;28;20081;-62
2022/05/20 02:16:21;;;;;;;101.68;13.25;;;;;;;;;;5014095;28;20540;-61
2022/05/20 02:18:51;;;;;;;182.57;15.32;;;;;;;;;;5007947;28;20045;-62
2022/05/20 02:21:19;;;;;;;153.25;11.02;;;;;;;;;;5012810;28;20165;-62
2022/05/20 02:23:47;;;;;;;31.48;10.52;;;;;;;;;;5019587;28;20048;-63
2022/05/20 02:26:15;;;;;;;20.45;10.38;;;;;;;;;;5014380;28;20064;-62
2022/05/20 02:28:43;;;;;;;18.90;11.52;;;;;;;;;;5015757;28;20042;-62
2022/05/20 02:31:17;;;;;;;35.67;12.23;;;;;;;;;;5011984;28;20378;-61
2022/05/20 02:33:43;;;;;;;75.05;18.75;;;;;;;;;;5011303;28;20410;-62
2022/05/20 02:36:19;;;;;;;41.38;18.77;;;;;;;;;;5017381;28;20085;-61
2022/05/20 02:38:45;;;;;;;53.75;16.92;;;;;;;;;;5010891;28;20054;-61
2022/05/20 02:41:11;;;;;;;138.77;12.43;;;;;;;;;;5010590;28;20072;-62
2022/05/20 02:43:37;;;;;;;95.82;11.45;;;;;;;;;;5015133;28;20042;-62
2022/05/20 02:46:03;;;;;;;13.30;8.82;;;;;;;;;;5015306;28;20080;-62
2022/05/20 02:48:29;;;;;;;16.08;8.90;;;;;;;;;;5008361;28;20038;-62
2022/05/20 02:50:58;;;;;;;21.90;7.95;;;;;;;;;;5012997;28;20081;-61
2022/05/20 02:53:24;;;;;;;25.15;8.23;;;;;;;;;;5009335;28;20073;-62
2022/05/20 02:55:50;;;;;;;42.67;10.88;;;;;;;;;;5011740;28;20321;-62
2022/05/20 03:04:10;;;;;;;96.40;10.23;;;;;;;;;;5016462;28;20142;-62
2022/05/20 03:06:37;;;;;;;19.20;11.43;;;;;;;;;;5010603;28;20103;-62
2022/05/20 03:09:04;;;;;;;19.30;11.73;;;;;;;;;;5002830;28;20465;-63
2022/05/20 03:11:30;;;;;;;15.57;10.85;;;;;;;;;;5016821;28;20081;-62
2022/05/20 03:13:56;;;;;;;19.27;11.85;;;;;;;;;;5015435;28;20474;-62
2022/05/20 03:16:22;;;;;;;17.98;11.88;;;;;;;;;;5010255;28;20038;-62
2022/05/20 03:18:48;;;;;;;17.10;12.05;;;;;;;;;;5012969;28;20152;-62
2022/05/20 03:21:14;;;;;;;15.02;10.60;;;;;;;;;;5010358;28;20371;-62
2022/05/20 03:23:40;;;;;;;12.20;7.72;;;;;;;;;;5008766;28;20500;-63
2022/05/20 03:26:07;;;;;;;317.08;16.58;;;;;;;;;;5017433;28;20160;-62
2022/05/20 03:28:34;;;;;;;219.05;13.60;;;;;;;;;;5015952;28;20060;-62
2022/05/20 03:31:09;;;;;;;237.27;16.35;;;;;;;;;;5011383;28;20493;-63
2022/05/20 03:33:36;;;;;;;152.02;14.23;;;;;;;;;;5016697;28;20037;-63
2022/05/20 03:36:02;;;;;;;212.82;15.32;;;;;;;;;;5013148;28;20070;-62
2022/05/20 03:38:28;;;;;;;207.45;14.93;;;;;;;;;;5015691;28;20512;-62
2022/05/20 03:40:55;;;;;;;152.38;14.65;;;;;;;;;;5013460;28;20433;-62
2022/05/20 03:43:21;;;;;;;233.20;16.83;;;;;;;;;;5012435;28;20072;-61
2022/05/20 03:45:47;;;;;;;353.48;22.98;;;;;;;;;;5014340;28;20035;-61
2022/05/20 03:48:14;;;;;;;249.40;28.25;;;;;;;;;;5012833;28;20050;-62
2022/05/20 03:50:40;;;;;;;149.65;17.38;;;;;;;;;;5017706;28;20053;-61
2022/05/20 03:53:06;;;;;;;113.78;14.60;;;;;;;;;;5012435;28;20049;-61
2022/05/20 03:55:32;;;;;;;63.13;16.42;;;;;;;;;;5014982;28;21751;-63
2022/05/20 03:57:58;;;;;;;201.20;14.80;;;;;;;;;;5012053;28;20169;-62
2022/05/20 04:00:24;;;;;;;43.28;9.77;;;;;;;;;;5010312;28;20034;-62
2022/05/20 04:02:51;;;;;;;96.38;10.85;;;;;;;;;;5011822;28;20121;-62
2022/05/20 04:05:17;;;;;;;22.40;8.32;;;;;;;;;;5009109;28;20125;-62
2022/05/20 04:07:43;;;;;;;40.80;12.60;;;;;;;;;;5014312;28;20037;-62
2022/05/20 04:10:09;;;;;;;29.15;9.52;;;;;;;;;;5008304;28;20190;-62
2022/05/20 04:12:38;;;;;;;26.23;7.80;;;;;;;;;;4993070;28;20435;-62
2022/05/20 04:15:05;;;;;;;21.90;7.53;;;;;;;;;;5010367;28;20046;-62
2022/05/20 04:17:31;;;;;;;74.88;12.05;;;;;;;;;;5014456;28;20049;-62
2022/05/20 04:19:58;;;;;;;64.30;13.00;;;;;;;;;;5008818;28;20136;-62
2022/05/20 04:22:27;;;;;;;57.90;13.23;;;;;;;;;;5009581;28;20509;-62
2022/05/20 04:24:53;;;;;;;41.13;12.93;;;;;;;;;;5011175;28;20038;-62
2022/05/20 04:27:19;;;;;;;41.72;13.48;;;;;;;;;;5010249;28;20041;-62
2022/05/20 04:29:45;;;;;;;80.55;13.48;;;;;;;;;;5019150;28;20053;-62
2022/05/20 04:32:11;;;;;;;122.57;11.60;;;;;;;;;;5015049;28;20049;-62
2022/05/20 04:34:38;;;;;;;204.43;13.88;;;;;;;;;;5011710;28;20454;-62
2022/05/20 04:37:04;;;;;;;145.05;14.18;;;;;;;;;;5012402;28;21055;-62
2022/05/20 04:39:30;;;;;;;73.88;12.18;;;;;;;;;;5010939;28;20045;-63
2022/05/20 04:47:27;;;;;;;129.95;11.73;;;;;;;;;;5025113;28;20038;-63
2022/05/20 04:49:54;;;;;;;144.32;13.25;;;;;;;;;;5000820;28;20099;-62
2022/05/20 04:52:20;;;;;;;91.03;12.73;;;;;;;;;;5009076;28;20099;-62
2022/05/20 04:54:49;;;;;;;22.73;13.45;;;;;;;;;;5018929;28;20133;-61
2022/05/20 04:57:20;;;;;;;19.85;15.30;;;;;;;;;;4996867;28;20042;-61
2022/05/20 04:59:46;;;;;;;19.40;16.70;;;;;;;;;;5001926;28;20136;-60
2022/05/20 05:02:13;;;;;;;23.98;15.63;;;;;;;;;;5014895;28;20041;-62
2022/05/20 05:04:39;;;;;;;12.82;11.45;;;;;;;;;;5016281;28;20175;-62
2022/05/20 05:07:09;;;;;;;17.10;12.45;;;;;;;;;;5022030;28;20046;-61
2022/05/20 05:09:36;;;;;;;20.70;16.55;;;;;;;;;;5021603;28;20065;-62
2022/05/20 05:12:03;;;;;;;25.55;18.70;;;;;;;;;;5023331;28;20192;-62
2022/05/20 05:14:29;;;;;;;22.08;19.08;;;;;;;;;;5015241;28;20053;-62
2022/05/20 05:16:56;;;;;;;27.58;20.70;;;;;;;;;;5027760;28;20061;-62
2022/05/20 05:19:22;;;;;;;25.70;19.75;;;;;;;;;;5015090;28;20724;-63
2022/05/20 05:21:48;;;;;;;26.25;20.17;;;;;;;;;;5009263;28;20057;-63
2022/05/20 05:24:15;;;;;;;29.85;20.73;;;;;;;;;;5019685;28;20557;-62
2022/05/20 05:26:42;;;;;;;27.85;21.73;;;;;;;;;;5026797;28;20510;-62
2022/05/20 05:29:08;;;;;;;24.50;20.63;;;;;;;;;;5014326;28;20105;-62
2022/05/20 05:31:34;;;;;;;35.03;25.00;;;;;;;;;;5017842;28;20041;-62
2022/05/20 05:34:01;;;;;;;36.70;25.23;;;;;;;;;;5024860;28;20057;-62
2022/05/20 05:36:27;;;;;;;38.72;26.70;;;;;;;;;;5016247;28;20421;-62
2022/05/20 05:38:53;;;;;;;37.45;26.02;;;;;;;;;;5015356;28;20117;-63
2022/05/20 05:41:20;;;;;;;40.13;26.05;;;;;;;;;;5014167;28;20046;-63
2022/05/20 05:43:47;;;;;;;36.00;26.20;;;;;;;;;;5013571;28;20101;-63
2022/05/20 05:46:13;;;;;;;37.60;26.95;;;;;;;;;;5014273;28;20041;-63
2022/05/20 05:48:39;;;;;;;34.70;24.67;;;;;;;;;;5014429;28;20061;-63
2022/05/20 05:51:06;;;;;;;30.73;23.88;;;;;;;;;;5012886;28;20037;-63
2022/05/20 05:53:32;;;;;;;34.47;26.48;;;;;;;;;;5013924;28;20052;-63
2022/05/20 05:55:59;;;;;;;37.42;26.33;;;;;;;;;;5018139;28;20042;-63
2022/05/20 05:58:26;;;;;;;32.05;22.23;;;;;;;;;;5014749;28;20034;-63
2022/05/20 06:00:53;;;;;;;25.90;20.55;;;;;;;;;;5015888;28;20471;-63
2022/05/20 06:03:20;;;;;;;23.30;15.38;;;;;;;;;;5019519;28;20042;-63
2022/05/20 06:05:47;;;;;;;23.13;12.30;;;;;;;;;;5018545;28;20041;-62
2022/05/20 06:08:13;;;;;;;19.20;11.20;;;;;;;;;;5020439;28;20050;-63
2022/05/20 06:10:40;;;;;;;23.00;12.38;;;;;;;;;;5017693;28;20104;-63
2022/05/20 06:13:06;;;;;;;25.17;12.38;;;;;;;;;;5018738;28;20044;-63
2022/05/20 06:15:32;;;;;;;19.55;9.18;;;;;;;;;;5018994;28;20137;-63
2022/05/20 06:17:59;;;;;;;17.15;6.25;;;;;;;;;;5016855;28;20050;-63
2022/05/20 06:20:26;;;;;;;20.58;9.20;;;;;;;;;;5016617;28;20053;-63
2022/05/20 06:22:52;;;;;;;13.55;5.90;;;;;;;;;;5014298;28;20107;-63
2022/05/20 06:25:18;;;;;;;18.70;5.55;;;;;;;;;;5013915;28;20515;-63
2022/05/20 06:27:45;;;;;;;16.00;6.78;;;;;;;;;;5014511;28;20271;-63
2022/05/20 06:30:13;;;;;;;14.50;6.22;;;;;;;;;;5033223;28;20049;-63
2022/05/20 06:32:39;;;;;;;12.57;6.25;;;;;;;;;;5015709;28;20194;-63
2022/05/20 06:40:36;;;;;;;17.08;7.55;;;;;;;;;;5013155;28;20053;-63
2022/05/20 06:43:04;;;;;;;19.90;7.63;;;;;;;;;;5014007;28;20045;-63
2022/05/20 06:45:31;;;;;;;17.98;8.10;;;;;;;;;;5012897;28;20049;-63
2022/05/20 06:47:58;;;;;;;13.80;8.30;;;;;;;;;;5013948;28;20056;-63
2022/05/20 06:50:24;;;;;;;23.02;11.05;;;;;;;;;;5032175;28;20052;-63
2022/05/20 06:52:50;;;;;;;17.67;11.32;;;;;;;;;;5032745;28;20076;-63
2022/05/20 06:55:16;;;;;;;14.82;9.00;;;;;;;;;;5033479;28;20164;-63
2022/05/20 06:57:43;;;;;;;14.80;8.05;;;;;;;;;;5033440;28;20067;-63
2022/05/20 07:00:11;;;;;;;20.52;9.20;;;;;;;;;;5018370;28;20490;-63
2022/05/20 07:02:38;;;;;;;15.15;7.13;;;;;;;;;;5013001;28;20067;-63
2022/05/20 07:05:06;;;;;;;18.35;8.18;;;;;;;;;;5013502;28;20046;-63
2022/05/20 07:07:32;;;;;;;12.50;6.43;;;;;;;;;;5012783;28;20477;-63
2022/05/20 07:09:59;;;;;;;15.23;5.55;;;;;;;;;;5022562;28;20125;-63
2022/05/20 07:12:25;;;;;;;17.27;4.93;;;;;;;;;;5033161;28;20052;-63
2022/05/20 07:14:51;;;;;;;18.15;5.82;;;;;;;;;;5013595;28;20515;-62
2022/05/20 07:17:18;;;;;;;13.45;5.07;;;;;;;;;;5033116;28;20056;-63
2022/05/20 07:19:44;;;;;;;8.35;4.13;;;;;;;;;;5028558;28;20449;-62
2022/05/20 07:22:10;;;;;;;14.90;4.18;;;;;;;;;;5014380;28;20506;-62
2022/05/20 07:24:37;;;;;;;15.23;4.22;;;;;;;;;;5013213;28;20041;-62
2022/05/20 07:27:04;;;;;;;10.85;3.80;;;;;;;;;;5013081;28;20112;-62
2022/05/20 07:29:30;;;;;;;14.98;4.13;;;;;;;;;;5012159;28;20157;-62
2022/05/20 07:31:57;;;;;;;14.95;4.53;;;;;;;;;;5031457;28;20046;-62
2022/05/20 07:34:24;;;;;;;11.50;3.70;;;;;;;;;;5025866;28;20386;-62
2022/05/20 07:36:50;;;;;;;13.35;4.40;;;;;;;;;;5040227;28;20052;-62
2022/05/20 07:39:16;;;;;;;12.82;4.65;;;;;;;;;;5052541;28;20183;-62
2022/05/20 07:41:42;;;;;;;12.88;3.88;;;;;;;;;;5030644;28;20044;-62
2022/05/20 07:44:09;;;;;;;14.98;4.32;;;;;;;;;;5012822;28;20077;-62
2022/05/20 07:46:35;;;;;;;12.35;4.55;;;;;;;;;;5012965;28;20088;-62
2022/05/20 07:49:01;;;;;;;13.85;5.30;;;;;;;;;;5013141;28;20086;-62
2022/05/20 07:51:30;;;;;;;15.45;5.93;;;;;;;;;;5012794;28;20056;-62
2022/05/20 07:53:57;;;;;;;12.00;5.82;;;;;;;;;;5009579;28;20042;-63
2022/05/20 07:56:27;;;;;;;15.27;6.40;;;;;;;;;;5027908;28;20046;-62
2022/05/20 07:58:58;;;;;;;18.05;6.15;;;;;;;;;;5013740;28;20046;-63
2022/05/20 08:01:27;;;;;;;15.25;5.72;;;;;;;;;;4994754;28;20053;-63
2022/05/20 08:06:40;;;;;;;14.52;6.15;;;;;;;;;;5013645;28;20042;-62
2022/05/20 08:09:07;;;;;;;13.23;5.72;;;;;;;;;;5013449;28;20045;-62
2022/05/20 08:11:33;;;;;;;13.05;3.88;;;;;;;;;;5012795;28;20147;-62
2022/05/20 08:13:59;;;;;;;11.43;3.80;;;;;;;;;;5012428;28;20050;-62
2022/05/20 08:16:25;;;;;;;10.30;3.05;;;;;;;;;;5012469;28;20401;-62
2022/05/20 08:18:52;;;;;;;11.75;4.00;;;;;;;;;;5011624;28;20406;-62
2022/05/20 08:21:18;;;;;;;12.55;4.10;;;;;;;;;;5013410;28;20120;-62
2022/05/20 08:23:45;;;;;;;10.02;4.07;;;;;;;;;;5013431;28;20076;-62
2022/05/20 08:26:16;;;;;;;11.40;4.32;;;;;;;;;;5011546;28;20049;-62
2022/05/20 08:28:44;;;;;;;11.07;4.07;;;;;;;;;;5012385;28;20089;-62
2022/05/20 08:31:11;;;;;;;11.32;3.95;;;;;;;;;;5012563;28;20053;-62
2022/05/20 08:33:37;;;;;;;10.90;4.18;;;;;;;;;;5012207;28;20046;-62
2022/05/20 08:36:04;;;;;;;11.35;4.18;;;;;;;;;;5011951;28;20050;-62
2022/05/20 08:38:30;;;;;;;13.43;4.40;;;;;;;;;;5012620;28;20406;-62
2022/05/20 08:40:58;;;;;;;12.40;4.28;;;;;;;;;;4999606;28;20045;-62
2022/05/20 08:43:26;;;;;;;11.43;4.25;;;;;;;;;;5020463;28;20088;-62
2022/05/20 08:45:52;;;;;;;14.50;4.22;;;;;;;;;;5011289;28;20042;-62
2022/05/20 08:48:19;;;;;;;11.13;4.40;;;;;;;;;;5013093;28;20057;-62
2022/05/20 08:50:47;;;;;;;12.30;4.63;;;;;;;;;;5011998;28;20038;-62
2022/05/20 08:53:22;;;;;;;10.35;4.53;;;;;;;;;;5012026;28;20048;-62
2022/05/20 08:55:49;;;;;;;13.30;4.88;;;;;;;;;;4994459;28;20125;-62
2022/05/20 08:58:18;;;;;;;12.10;4.97;;;;;;;;;;5008321;28;20041;-62
2022/05/20 09:00:44;;;;;;;12.82;4.65;;;;;;;;;;5031001;28;20068;-61
2022/05/20 09:03:11;;;;;;;10.32;4.43;;;;;;;;;;5016878;28;20451;-62
2022/05/20 09:05:39;;;;;;;13.02;5.00;;;;;;;;;;5012187;28;20053;-62
2022/05/20 09:08:07;;;;;;;13.27;4.90;;;;;;;;;;4993761;28;20048;-62
2022/05/20 09:10:33;;;;;;;9.95;3.90;;;;;;;;;;5011935;28;20453;-62
2022/05/20 09:13:05;;;;;;;11.05;4.85;;;;;;;;;;5024248;28;20132;-62
2022/05/20 09:15:43;;;;;;;8.70;4.20;;;;;;;;;;5031409;28;20065;-62
2022/05/20 09:18:13;;;;;;;9.35;4.38;;;;;;;;;;5006384;28;20054;-62
2022/05/20 09:20:46;;;;;;;9.93;4.50;;;;;;;;;;5011093;28;20041;-62
2022/05/20 09:23:12;;;;;;;;;;;;;;;;;;5018964;28;20556;-62
2022/05/20 09:25:46;;;;;;;9.55;4.40;;;;;;;;;;5032162;28;19975;-62
2022/05/20 09:28:30;;;;;;;7.93;4.35;;;;;;;;;;5032452;28;20076;-62
2022/05/20 09:31:04;;;;;;;14.35;5.32;;;;;;;;;;5017483;28;20489;-62
2022/05/20 09:33:31;;;;;;;11.05;4.50;;;;;;;;;;5033118;28;20091;-62
2022/05/20 09:35:59;;;;;;;11.55;3.78;;;;;;;;;;5033961;28;20075;-62
2022/05/20 09:38:34;;;;;;;7.88;3.00;;;;;;;;;;5031979;28;20049;-62
2022/05/20 09:41:08;;;;;;;11.05;4.45;;;;;;;;;;5015094;28;20058;-62
2022/05/20 09:43:38;;;;;;;10.00;5.20;;;;;;;;;;5015364;28;20486;-62
2022/05/20 09:46:05;;;;;;;8.65;4.57;;;;;;;;;;5016112;28;20564;-62
2022/05/20 09:48:36;;;;;;;9.05;4.80;;;;;;;;;;4997623;28;20505;-64
2022/05/20 09:51:05;;;;;;;9.73;4.90;;;;;;;;;;5014837;28;20519;-61
2022/05/20 09:53:39;;;;;;;9.43;4.72;;;;;;;;;;5014919;28;20482;-61
2022/05/20 09:56:14;;;;;;;9.63;5.32;;;;;;;;;;5015171;28;20096;-61
2022/05/20 09:58:40;;;;;;;11.13;4.95;;;;;;;;;;5014968;28;20050;-61
2022/05/20 10:01:11;;;;;;;11.50;5.40;;;;;;;;;;5012151;28;20057;-61
2022/05/20 10:03:39;;;;;;;8.60;4.93;;;;;;;;;;5020855;28;20053;-63
2022/05/20 10:06:17;;;;;;;11.25;5.05;;;;;;;;;;5015851;28;20393;-60
2022/05/20 10:09:04;;;;;;;13.63;4.72;;;;;;;;;;5024213;28;20034;-60
2022/05/20 10:14:22;;;;;;;11.25;5.28;;;;;;;;;;5016696;28;20042;-60
2022/05/20 10:17:00;;;;;;;12.05;4.55;;;;;;;;;;5019352;28;20041;-61
2022/05/20 10:19:33;;;;;;;11.88;4.22;;;;;;;;;;5009678;28;20386;-61
2022/05/20 10:22:00;;;;;;;;;;;;;;;;;;5017555;28;20136;-62
2022/05/20 10:24:38;;;;;;;12.18;5.07;;;;;;;;;;5016519;28;19983;-61
2022/05/20 10:27:05;;;;;;;10.55;3.92;;;;;;;;;;5018524;28;20033;-61
2022/05/20 10:32:34;;;;;;;9.55;3.95;;;;;;;;;;5010547;28;20285;-62
2022/05/20 10:35:01;;;;;;;10.80;4.45;;;;;;;;;;5016506;28;20414;-61
2022/05/20 10:37:33;;;;;;;8.77;4.45;;;;;;;;;;5017338;28;20056;-62
2022/05/20 10:40:29;;;;;;;10.35;5.43;;;;;;;;;;5015835;28;20174;-62
2022/05/20 10:43:17;;;;;;;7.15;4.45;;;;;;;;;;5020725;28;20052;-61
2022/05/20 10:48:40;;;;;;;9.82;4.85;;;;;;;;;;5016104;28;20120;-61
2022/05/20 10:51:13;;;;;;;8.85;5.15;;;;;;;;;;5020514;28;20041;-61
2022/05/20 10:53:59;;;;;;;9.07;4.90;;;;;;;;;;5023037;28;20481;-62
2022/05/20 10:56:36;;;;;;;10.20;5.40;;;;;;;;;;5016902;28;20038;-61
2022/05/20 10:59:05;;;;;;;9.05;5.32;;;;;;;;;;5014098;28;20041;-62
2022/05/20 11:01:39;;;;;;;10.48;4.93;;;;;;;;;;5010028;28;20055;-61
2022/05/20 11:04:16;;;;;;;7.45;4.43;;;;;;;;;;5015307;28;20069;-61
2022/05/20 11:06:46;;;;;;;7.35;4.55;;;;;;;;;;5015579;28;20497;-62
2022/05/20 11:09:18;;;;;;;11.23;4.53;;;;;;;;;;5014255;28;20137;-62
2022/05/20 11:11:54;;;;;;;9.15;4.07;;;;;;;;;;5016405;28;20430;-62
2022/05/20 11:14:20;;;;;;;11.13;4.53;;;;;;;;;;5019687;28;20138;-61
2022/05/20 11:16:53;;;;;;;8.13;3.83;;;;;;;;;;5020365;28;20033;-61
2022/05/20 11:19:28;;;;;;;10.25;4.10;;;;;;;;;;5017854;28;20113;-62
2022/05/20 11:21:54;;;;;;;9.05;4.50;;;;;;;;;;5016455;28;20087;-62
2022/05/20 11:24:20;;;;;;;8.13;4.03;;;;;;;;;;5017100;28;20038;-61
2022/05/20 11:26:58;;;;;;;6.90;4.32;;;;;;;;;;5013276;28;20041;-62
2022/05/20 11:29:24;;;;;;;8.30;4.40;;;;;;;;;;5022874;28;20050;-61
2022/05/20 11:32:01;;;;;;;8.07;4.65;;;;;;;;;;5018591;28;20109;-61
2022/05/20 11:34:46;;;;;;;9.15;4.00;;;;;;;;;;5015930;28;20128;-62
2022/05/20 11:37:18;;;;;;;7.47;4.13;;;;;;;;;;5018107;28;20064;-62
2022/05/20 11:39:44;;;;;;;10.52;5.00;;;;;;;;;;5019285;28;20045;-62
2022/05/20 11:42:18;;;;;;;8.07;4.95;;;;;;;;;;5018211;28;20149;-61
2022/05/20 11:44:47;;;;;;;7.72;4.82;;;;;;;;;;4996253;28;20053;-62
2022/05/20 11:47:25;;;;;;;12.13;5.78;;;;;;;;;;5012488;28;20046;-62
2022/05/20 11:49:54;;;;;;;7.47;5.15;;;;;;;;;;5000242;28;20128;-62
2022/05/20 11:52:32;;;;;;;6.97;4.43;;;;;;;;;;5012565;28;20056;-62
2022/05/20 11:55:03;;;;;;;9.75;4.65;;;;;;;;;;5017581;28;20490;-62
2022/05/20 11:57:33;;;;;;;11.25;5.35;;;;;;;;;;5016389;28;20486;-62
2022/05/20 12:00:02;;;;;;;11.18;5.82;;;;;;;;;;5016489;28;20038;-62
2022/05/20 12:02:29;;;;;;;11.65;6.43;;;;;;;;;;5013094;28;20041;-62
2022/05/20 12:04:56;;;;;;;10.65;6.28;;;;;;;;;;5015220;28;20040;-62
2022/05/20 12:07:23;;;;;;;14.00;6.65;;;;;;;;;;5018756;28;20128;-65
2022/05/20 12:09:51;;;;;;;10.00;5.75;;;;;;;;;;5012809;28;20053;-62
2022/05/20 12:12:20;;;;;;;9.20;5.63;;;;;;;;;;5001167;28;20057;-62
2022/05/20 12:15:06;;;;;;;10.02;5.75;;;;;;;;;;5016512;28;20057;-62
2022/05/20 12:17:40;;;;;;;10.05;5.72;;;;;;;;;;5016822;28;20049;-62
2022/05/20 12:25:52;;;;;;;11.80;7.32;;;;;;;;;;5017094;28;20081;-62
2022/05/20 12:28:21;;;;;;;11.20;7.30;;;;;;;;;;5011574;28;20038;-63
2022/05/20 12:31:02;;;;;;;14.13;7.95;;;;;;;;;;4997342;28;20058;-62
2022/05/20 12:33:49;;;;;;;10.25;7.45;;;;;;;;;;4999120;28;20038;-62
2022/05/20 12:36:15;;;;;;;11.68;6.45;;;;;;;;;;4996091;28;20038;-63
2022/05/20 12:38:42;;;;;;;12.63;5.80;;;;;;;;;;4983167;28;20490;-62
2022/05/20 12:41:27;;;;;;;12.15;6.70;;;;;;;;;;5002483;28;20125;-70
2022/05/20 12:43:55;;;;;;;12.00;5.45;;;;;;;;;;5001635;28;20042;-62
2022/05/20 12:46:26;;;;;;;9.48;5.00;;;;;;;;;;4995774;28;20049;-63
2022/05/20 12:48:54;;;;;;;8.52;4.68;;;;;;;;;;4993174;28;20098;-63
2022/05/20 12:51:21;;;;;;;9.13;5.35;;;;;;;;;;4996828;28;20045;-62
2022/05/20 12:53:47;;;;;;;10.32;4.75;;;;;;;;;;4993112;28;20046;-62
2022/05/20 12:56:25;;;;;;;14.05;5.70;;;;;;;;;;4993673;28;20060;-62
2022/05/20 12:58:51;;;;;;;8.32;5.88;;;;;;;;;;4991796;28;20050;-62
2022/05/20 13:01:17;;;;;;;8.10;5.45;;;;;;;;;;5002838;28;20137;-62
2022/05/20 13:03:45;;;;;;;9.00;6.05;;;;;;;;;;4993860;28;20490;-63
2022/05/20 13:06:14;;;;;;;9.32;6.20;;;;;;;;;;5006010;28;20401;-62
2022/05/20 13:08:41;;;;;;;10.52;6.32;;;;;;;;;;5002462;28;20037;-62
2022/05/20 13:11:08;;;;;;;9.95;5.15;;;;;;;;;;5005710;28;20088;-62
2022/05/20 13:13:35;;;;;;;7.07;4.72;;;;;;;;;;5001868;28;20085;-63
2022/05/20 13:16:02;;;;;;;7.20;4.30;;;;;;;;;;4996788;28;20125;-63
2022/05/20 13:18:30;;;;;;;6.35;3.67;;;;;;;;;;5011215;28;20034;-63
2022/05/20 13:20:58;;;;;;;7.45;3.72;;;;;;;;;;5003774;28;20454;-63
2022/05/20 13:23:28;;;;;;;6.53;3.50;;;;;;;;;;5000874;28;20034;-63
2022/05/20 13:25:54;;;;;;;7.40;4.30;;;;;;;;;;4999088;28;20046;-63
2022/05/20 13:28:23;;;;;;;9.68;4.43;;;;;;;;;;5008599;28;20092;-63
2022/05/20 13:30:49;;;;;;;7.95;4.57;;;;;;;;;;5009830;28;20509;-62
2022/05/20 13:33:15;;;;;;;7.95;4.47;;;;;;;;;;5013699;28;20100;-63
2022/05/20 13:35:49;;;;;;;10.55;4.65;;;;;;;;;;5009901;28;20136;-63
2022/05/20 13:38:15;;;;;;;;;;;;;;;;;;5007918;28;20100;-63
2022/05/20 13:40:42;;;;;;;13.02;4.80;;;;;;;;;;5011955;28;20360;-63
2022/05/20 13:43:10;;;;;;;9.65;4.82;;;;;;;;;;5006942;28;20053;-63
2022/05/20 13:51:10;;;;;;;11.82;6.57;;;;;;;;;;5006611;28;20042;-63
2022/05/20 13:53:38;;;;;;;12.35;6.18;;;;;;;;;;5011341;28;20052;-63
2022/05/20 13:56:06;;;;;;;13.50;6.93;;;;;;;;;;4998985;28;20048;-63
2022/05/20 13:58:33;;;;;;;13.98;7.32;;;;;;;;;;4997476;28;20084;-63
2022/05/20 14:01:02;;;;;;;13.90;7.95;;;;;;;;;;4999980;28;20065;-63
2022/05/20 14:03:30;;;;;;;13.27;7.70;;;;;;;;;;5001525;28;20555;-63
2022/05/20 14:06:00;;;;;;;12.32;7.07;;;;;;;;;;5010764;28;20038;-63
2022/05/20 14:08:26;;;;;;;13.02;8.07;;;;;;;;;;5012034;28;20042;-63
2022/05/20 14:10:55;;;;;;;16.92;8.88;;;;;;;;;;4998251;28;20139;-63
2022/05/20 14:13:24;;;;;;;18.95;8.90;;;;;;;;;;4994410;28;20086;-63
2022/05/20 14:15:58;;;;;;;21.23;9.20;;;;;;;;;;4998451;28;20780;-63
2022/05/20 14:18:25;;;;;;;15.27;9.13;;;;;;;;;;4983657;28;20046;-63
2022/05/20 14:21:12;;;;;;;17.17;9.23;;;;;;;;;;5012751;28;20058;-63
2022/05/20 14:23:42;;;;;;;17.02;9.02;;;;;;;;;;4994227;28;20870;-63
2022/05/20 14:26:18;;;;;;;14.23;7.43;;;;;;;;;;4994606;28;20493;-63
2022/05/20 14:28:57;;;;;;;12.38;7.45;;;;;;;;;;4995736;28;20442;-63
2022/05/20 14:31:23;;;;;;;12.40;7.28;;;;;;;;;;4993854;28;20046;-63
2022/05/20 14:33:52;;;;;;;12.98;7.50;;;;;;;;;;5003066;28;20113;-63
2022/05/20 14:36:18;;;;;;;10.68;7.40;;;;;;;;;;5008970;28;20536;-63
2022/05/20 14:38:47;;;;;;;14.13;8.30;;;;;;;;;;5011949;28;20041;-63
2022/05/20 14:41:17;;;;;;;16.63;8.93;;;;;;;;;;5012613;28;20057;-63
2022/05/20 14:43:51;;;;;;;14.95;9.43;;;;;;;;;;4994785;28;20043;-63
2022/05/20 14:49:11;;;;;;;16.63;9.02;;;;;;;;;;5003710;28;20041;-63
2022/05/20 14:51:37;;;;;;;20.40;9.55;;;;;;;;;;5011612;28;20197;-63
2022/05/20 14:54:05;;;;;;;19.58;9.13;;;;;;;;;;5003150;28;20341;-63
2022/05/20 14:56:37;;;;;;;20.52;9.38;;;;;;;;;;5000904;28;20497;-63
2022/05/20 14:59:04;;;;;;;13.57;8.20;;;;;;;;;;5011821;28;20042;-63
2022/05/20 15:01:32;;;;;;;19.48;9.32;;;;;;;;;;5009852;28;20072;-63
2022/05/20 15:03:58;;;;;;;14.90;9.25;;;;;;;;;;5007235;28;20457;-63
2022/05/20 15:06:26;;;;;;;12.77;10.02;;;;;;;;;;5000076;28;20044;-63
2022/05/20 15:08:53;;;;;;;20.65;9.98;;;;;;;;;;4992243;28;20050;-63
2022/05/20 15:11:21;;;;;;;20.35;9.75;;;;;;;;;;4993843;28;20066;-63
2022/05/20 15:13:48;;;;;;;14.43;10.20;;;;;;;;;;5011101;28;20666;-63
2022/05/20 15:16:14;;;;;;;17.67;9.93;;;;;;;;;;5011828;28;20121;-63